sensor_id;sensor_type;location;lat;lon;timestamp;P1;durP1;ratioP1;P2;durP2;ratioP2
72493;SDS011;60520;49.182;-0.348;2023-12-14T00:00:36;2.47;;;1.48;;
72493;SDS011;60520;49.182;-0.348;2023-12-14T00:03:03;2.22;;;1.20;;
72493;SDS011;60520;49.182;-0.348;2023-12-14T00:05:30;3.90;;;1.33;;
72493;SDS011;60520;49.182;-0.348;2023-12-14T00:07:58;4.93;;;1.25;;
72493;SDS011;60520;49.182;-0.348;2023-12-14T00:10:25;2.72;;;1.20;;
72493;SDS011;60520;49.182;-0.348;2023-12-14T00:12:52;3.40;;;1.35;;
72493;SDS011;60520;49.182;-0.348;2023-12-14T00:15:20;3.13;;;1.20;;
72493;SDS011;60520;49.182;-0.348;2023-12-14T00:17:47;3.25;;;1.40;;
72493;SDS011;60520;49.182;-0.348;2023-12-14T00:20:14;2.53;;;1.10;;
72493;SDS011;60520;49.182;-0.348;2023-12-14T00:22:42;1.85;;;1.10;;
72493;SDS011;60520;49.182;-0.348;2023-12-14T00:25:10;2.92;;;1.30;;
72493;SDS011;60520;49.182;-0.348;2023-12-14T00:27:37;3.15;;;1.23;;
72493;SDS011;60520;49.182;-0.348;2023-12-14T00:30:07;2.58;;;1.23;;
72493;SDS011;60520;49.182;-0.348;2023-12-14T00:32:35;1.60;;;0.95;;
72493;SDS011;60520;49.182;-0.348;2023-12-14T00:35:02;2.63;;;1.23;;
72493;SDS011;60520;49.182;-0.348;2023-12-14T00:37:29;2.15;;;1.05;;
72493;SDS011;60520;49.182;-0.348;2023-12-14T00:39:56;2.55;;;1.38;;
72493;SDS011;60520;49.182;-0.348;2023-12-14T00:42:25;2.58;;;1.23;;
72493;SDS011;60520;49.182;-0.348;2023-12-14T00:44:52;2.38;;;1.20;;
72493;SDS011;60520;49.182;-0.348;2023-12-14T00:47:19;1.48;;;0.85;;
72493;SDS011;60520;49.182;-0.348;2023-12-14T00:49:46;2.80;;;1.10;;
72493;SDS011;60520;49.182;-0.348;2023-12-14T00:52:13;2.90;;;1.05;;
72493;SDS011;60520;49.182;-0.348;2023-12-14T00:54:40;2.90;;;1.20;;
72493;SDS011;60520;49.182;-0.348;2023-12-14T00:57:07;3.33;;;1.27;;
72493;SDS011;60520;49.182;-0.348;2023-12-14T00:59:36;2.55;;;1.10;;
72493;SDS011;60520;49.182;-0.348;2023-12-14T01:02:03;2.58;;;1.23;;
72493;SDS011;60520;49.182;-0.348;2023-12-14T01:04:30;2.38;;;1.00;;
72493;SDS011;60520;49.182;-0.348;2023-12-14T01:06:57;2.42;;;1.00;;
72493;SDS011;60520;49.182;-0.348;2023-12-14T01:09:25;2.08;;;0.98;;
72493;SDS011;60520;49.182;-0.348;2023-12-14T01:11:52;2.20;;;1.00;;
72493;SDS011;60520;49.182;-0.348;2023-12-14T01:14:19;2.10;;;1.00;;
72493;SDS011;60520;49.182;-0.348;2023-12-14T01:16:47;2.15;;;0.88;;
72493;SDS011;60520;49.182;-0.348;2023-12-14T01:19:15;2.75;;;1.10;;
72493;SDS011;60520;49.182;-0.348;2023-12-14T01:21:42;3.35;;;1.10;;
72493;SDS011;60520;49.182;-0.348;2023-12-14T01:24:09;3.70;;;1.13;;
72493;SDS011;60520;49.182;-0.348;2023-12-14T01:26:36;2.50;;;1.10;;
72493;SDS011;60520;49.182;-0.348;2023-12-14T01:29:03;2.83;;;0.85;;
72493;SDS011;60520;49.182;-0.348;2023-12-14T01:31:30;1.27;;;0.82;;
72493;SDS011;60520;49.182;-0.348;2023-12-14T01:33:59;3.67;;;1.30;;
72493;SDS011;60520;49.182;-0.348;2023-12-14T01:36:26;2.53;;;1.10;;
72493;SDS011;60520;49.182;-0.348;2023-12-14T01:38:53;1.98;;;0.80;;
72493;SDS011;60520;49.182;-0.348;2023-12-14T01:41:20;2.15;;;1.10;;
72493;SDS011;60520;49.182;-0.348;2023-12-14T01:43:47;2.22;;;0.90;;
72493;SDS011;60520;49.182;-0.348;2023-12-14T01:46:15;3.15;;;0.90;;
72493;SDS011;60520;49.182;-0.348;2023-12-14T01:48:42;2.10;;;0.90;;
72493;SDS011;60520;49.182;-0.348;2023-12-14T01:51:10;1.75;;;0.93;;
72493;SDS011;60520;49.182;-0.348;2023-12-14T01:53:38;1.42;;;0.80;;
72493;SDS011;60520;49.182;-0.348;2023-12-14T01:56:06;2.42;;;1.00;;
72493;SDS011;60520;49.182;-0.348;2023-12-14T01:58:33;2.63;;;1.13;;
72493;SDS011;60520;49.182;-0.348;2023-12-14T02:01:02;1.40;;;0.80;;
72493;SDS011;60520;49.182;-0.348;2023-12-14T02:03:31;1.55;;;1.00;;
72493;SDS011;60520;49.182;-0.348;2023-12-14T02:05:58;1.65;;;0.80;;
72493;SDS011;60520;49.182;-0.348;2023-12-14T02:08:27;1.95;;;1.00;;
72493;SDS011;60520;49.182;-0.348;2023-12-14T02:10:54;1.75;;;0.90;;
72493;SDS011;60520;49.182;-0.348;2023-12-14T02:13:21;1.40;;;0.70;;
72493;SDS011;60520;49.182;-0.348;2023-12-14T02:15:48;1.83;;;1.00;;
72493;SDS011;60520;49.182;-0.348;2023-12-14T02:18:18;1.55;;;0.80;;
72493;SDS011;60520;49.182;-0.348;2023-12-14T02:20:45;2.00;;;0.88;;
72493;SDS011;60520;49.182;-0.348;2023-12-14T02:23:14;2.08;;;0.93;;
72493;SDS011;60520;49.182;-0.348;2023-12-14T02:25:41;1.00;;;0.73;;
72493;SDS011;60520;49.182;-0.348;2023-12-14T02:28:08;1.95;;;1.00;;
72493;SDS011;60520;49.182;-0.348;2023-12-14T02:30:35;2.00;;;0.90;;
72493;SDS011;60520;49.182;-0.348;2023-12-14T02:33:02;1.27;;;0.70;;
72493;SDS011;60520;49.182;-0.348;2023-12-14T02:35:29;1.42;;;0.82;;
72493;SDS011;60520;49.182;-0.348;2023-12-14T02:37:56;1.67;;;1.02;;
72493;SDS011;60520;49.182;-0.348;2023-12-14T02:40:25;2.35;;;1.05;;
72493;SDS011;60520;49.182;-0.348;2023-12-14T02:42:52;1.65;;;0.88;;
72493;SDS011;60520;49.182;-0.348;2023-12-14T02:45:19;1.10;;;0.70;;
72493;SDS011;60520;49.182;-0.348;2023-12-14T02:47:46;2.60;;;1.02;;
72493;SDS011;60520;49.182;-0.348;2023-12-14T02:50:14;2.63;;;0.90;;
72493;SDS011;60520;49.182;-0.348;2023-12-14T02:52:42;2.28;;;0.93;;
72493;SDS011;60520;49.182;-0.348;2023-12-14T02:55:09;1.52;;;0.88;;
72493;SDS011;60520;49.182;-0.348;2023-12-14T02:57:37;2.00;;;0.90;;
72493;SDS011;60520;49.182;-0.348;2023-12-14T03:00:05;1.85;;;0.80;;
72493;SDS011;60520;49.182;-0.348;2023-12-14T03:02:32;2.72;;;0.80;;
72493;SDS011;60520;49.182;-0.348;2023-12-14T03:04:59;1.88;;;0.70;;
72493;SDS011;60520;49.182;-0.348;2023-12-14T03:07:26;1.48;;;0.80;;
72493;SDS011;60520;49.182;-0.348;2023-12-14T03:09:54;2.63;;;1.10;;
72493;SDS011;60520;49.182;-0.348;2023-12-14T03:12:21;1.25;;;0.80;;
72493;SDS011;60520;49.182;-0.348;2023-12-14T03:14:49;2.13;;;1.00;;
72493;SDS011;60520;49.182;-0.348;2023-12-14T03:17:16;1.60;;;0.80;;
72493;SDS011;60520;49.182;-0.348;2023-12-14T03:19:43;2.45;;;0.80;;
72493;SDS011;60520;49.182;-0.348;2023-12-14T03:22:11;1.52;;;0.70;;
72493;SDS011;60520;49.182;-0.348;2023-12-14T03:24:38;2.22;;;0.85;;
72493;SDS011;60520;49.182;-0.348;2023-12-14T03:27:05;2.78;;;0.95;;
72493;SDS011;60520;49.182;-0.348;2023-12-14T03:29:32;1.55;;;0.82;;
72493;SDS011;60520;49.182;-0.348;2023-12-14T03:32:01;1.25;;;0.70;;
72493;SDS011;60520;49.182;-0.348;2023-12-14T03:34:28;1.30;;;0.80;;
72493;SDS011;60520;49.182;-0.348;2023-12-14T03:36:55;1.30;;;0.75;;
72493;SDS011;60520;49.182;-0.348;2023-12-14T03:39:22;1.48;;;0.77;;
72493;SDS011;60520;49.182;-0.348;2023-12-14T03:41:49;2.40;;;0.80;;
72493;SDS011;60520;49.182;-0.348;2023-12-14T03:44:17;2.45;;;0.90;;
72493;SDS011;60520;49.182;-0.348;2023-12-14T03:46:44;2.28;;;0.90;;
72493;SDS011;60520;49.182;-0.348;2023-12-14T03:49:12;1.25;;;0.82;;
72493;SDS011;60520;49.182;-0.348;2023-12-14T03:51:39;1.95;;;0.98;;
72493;SDS011;60520;49.182;-0.348;2023-12-14T03:54:07;1.75;;;0.65;;
72493;SDS011;60520;49.182;-0.348;2023-12-14T03:56:34;1.25;;;0.70;;
72493;SDS011;60520;49.182;-0.348;2023-12-14T03:59:01;1.17;;;0.75;;
72493;SDS011;60520;49.182;-0.348;2023-12-14T04:01:28;2.40;;;0.70;;
72493;SDS011;60520;49.182;-0.348;2023-12-14T04:03:55;1.33;;;0.80;;
72493;SDS011;60520;49.182;-0.348;2023-12-14T04:06:24;2.00;;;0.90;;
72493;SDS011;60520;49.182;-0.348;2023-12-14T04:08:51;2.30;;;0.80;;
72493;SDS011;60520;49.182;-0.348;2023-12-14T04:11:18;2.13;;;0.90;;
72493;SDS011;60520;49.182;-0.348;2023-12-14T04:13:45;1.60;;;0.70;;
72493;SDS011;60520;49.182;-0.348;2023-12-14T04:16:15;1.23;;;0.80;;
72493;SDS011;60520;49.182;-0.348;2023-12-14T04:18:42;1.52;;;0.82;;
72493;SDS011;60520;49.182;-0.348;2023-12-14T04:21:09;1.30;;;0.80;;
72493;SDS011;60520;49.182;-0.348;2023-12-14T04:23:38;1.50;;;0.70;;
72493;SDS011;60520;49.182;-0.348;2023-12-14T04:26:05;1.58;;;0.75;;
72493;SDS011;60520;49.182;-0.348;2023-12-14T04:28:32;1.70;;;0.70;;
72493;SDS011;60520;49.182;-0.348;2023-12-14T04:30:59;1.92;;;0.60;;
72493;SDS011;60520;49.182;-0.348;2023-12-14T04:33:26;1.05;;;0.65;;
72493;SDS011;60520;49.182;-0.348;2023-12-14T04:35:54;1.20;;;0.70;;
72493;SDS011;60520;49.182;-0.348;2023-12-14T04:38:21;1.58;;;0.80;;
72493;SDS011;60520;49.182;-0.348;2023-12-14T04:40:49;1.85;;;0.90;;
72493;SDS011;60520;49.182;-0.348;2023-12-14T04:43:16;0.90;;;0.60;;
72493;SDS011;60520;49.182;-0.348;2023-12-14T04:45:43;1.70;;;0.90;;
72493;SDS011;60520;49.182;-0.348;2023-12-14T04:48:11;1.63;;;0.88;;
72493;SDS011;60520;49.182;-0.348;2023-12-14T04:50:38;1.88;;;0.80;;
72493;SDS011;60520;49.182;-0.348;2023-12-14T04:53:05;1.17;;;0.70;;
72493;SDS011;60520;49.182;-0.348;2023-12-14T04:55:33;1.48;;;0.80;;
72493;SDS011;60520;49.182;-0.348;2023-12-14T04:58:01;2.15;;;0.70;;
72493;SDS011;60520;49.182;-0.348;2023-12-14T05:00:29;1.75;;;0.63;;
72493;SDS011;60520;49.182;-0.348;2023-12-14T05:02:56;1.30;;;0.80;;
72493;SDS011;60520;49.182;-0.348;2023-12-14T05:05:23;1.75;;;0.65;;
72493;SDS011;60520;49.182;-0.348;2023-12-14T05:07:50;1.95;;;0.77;;
72493;SDS011;60520;49.182;-0.348;2023-12-14T05:10:17;1.35;;;0.70;;
72493;SDS011;60520;49.182;-0.348;2023-12-14T05:12:44;2.10;;;0.80;;
72493;SDS011;60520;49.182;-0.348;2023-12-14T05:15:13;1.92;;;0.60;;
72493;SDS011;60520;49.182;-0.348;2023-12-14T05:17:40;2.67;;;0.63;;
72493;SDS011;60520;49.182;-0.348;2023-12-14T05:20:08;1.00;;;0.63;;
72493;SDS011;60520;49.182;-0.348;2023-12-14T05:22:35;1.67;;;0.63;;
72493;SDS011;60520;49.182;-0.348;2023-12-14T05:25:03;1.30;;;0.70;;
72493;SDS011;60520;49.182;-0.348;2023-12-14T05:27:30;1.30;;;0.70;;
72493;SDS011;60520;49.182;-0.348;2023-12-14T05:29:57;2.20;;;0.75;;
72493;SDS011;60520;49.182;-0.348;2023-12-14T05:32:26;2.03;;;0.70;;
72493;SDS011;60520;49.182;-0.348;2023-12-14T05:34:53;1.00;;;0.68;;
72493;SDS011;60520;49.182;-0.348;2023-12-14T05:37:20;1.00;;;0.60;;
72493;SDS011;60520;49.182;-0.348;2023-12-14T05:39:47;2.33;;;0.70;;
72493;SDS011;60520;49.182;-0.348;2023-12-14T05:42:15;1.55;;;0.60;;
72493;SDS011;60520;49.182;-0.348;2023-12-14T05:44:42;1.88;;;0.70;;
72493;SDS011;60520;49.182;-0.348;2023-12-14T05:47:10;1.05;;;0.60;;
72493;SDS011;60520;49.182;-0.348;2023-12-14T05:49:41;1.08;;;0.63;;
72493;SDS011;60520;49.182;-0.348;2023-12-14T05:52:09;1.10;;;0.43;;
72493;SDS011;60520;49.182;-0.348;2023-12-14T05:54:36;1.77;;;0.65;;
72493;SDS011;60520;49.182;-0.348;2023-12-14T05:57:03;1.27;;;0.60;;
72493;SDS011;60520;49.182;-0.348;2023-12-14T05:59:30;2.13;;;0.70;;
72493;SDS011;60520;49.182;-0.348;2023-12-14T06:01:57;1.25;;;0.50;;
72493;SDS011;60520;49.182;-0.348;2023-12-14T06:04:25;1.95;;;0.80;;
72493;SDS011;60520;49.182;-0.348;2023-12-14T06:06:54;0.82;;;0.60;;
72493;SDS011;60520;49.182;-0.348;2023-12-14T06:09:21;0.95;;;0.65;;
72493;SDS011;60520;49.182;-0.348;2023-12-14T06:11:54;1.65;;;0.70;;
72493;SDS011;60520;49.182;-0.348;2023-12-14T06:14:21;1.20;;;0.50;;
72493;SDS011;60520;49.182;-0.348;2023-12-14T06:16:48;1.33;;;0.50;;
72493;SDS011;60520;49.182;-0.348;2023-12-14T06:19:15;1.05;;;0.68;;
72493;SDS011;60520;49.182;-0.348;2023-12-14T06:21:42;1.85;;;0.70;;
72493;SDS011;60520;49.182;-0.348;2023-12-14T06:24:11;1.30;;;0.65;;
72493;SDS011;60520;49.182;-0.348;2023-12-14T06:26:40;1.15;;;0.70;;
72493;SDS011;60520;49.182;-0.348;2023-12-14T06:29:08;1.95;;;0.80;;
72493;SDS011;60520;49.182;-0.348;2023-12-14T06:31:35;1.00;;;0.50;;
72493;SDS011;60520;49.182;-0.348;2023-12-14T06:34:02;1.00;;;0.68;;
72493;SDS011;60520;49.182;-0.348;2023-12-14T06:36:29;1.75;;;0.60;;
72493;SDS011;60520;49.182;-0.348;2023-12-14T06:38:57;0.93;;;0.50;;
72493;SDS011;60520;49.182;-0.348;2023-12-14T06:41:25;1.08;;;0.50;;
72493;SDS011;60520;49.182;-0.348;2023-12-14T06:43:53;1.13;;;0.63;;
72493;SDS011;60520;49.182;-0.348;2023-12-14T06:46:21;0.95;;;0.47;;
72493;SDS011;60520;49.182;-0.348;2023-12-14T06:48:48;1.20;;;0.68;;
72493;SDS011;60520;49.182;-0.348;2023-12-14T06:51:16;1.45;;;0.63;;
72493;SDS011;60520;49.182;-0.348;2023-12-14T06:53:43;1.42;;;0.70;;
72493;SDS011;60520;49.182;-0.348;2023-12-14T06:56:12;1.52;;;0.52;;
72493;SDS011;60520;49.182;-0.348;2023-12-14T06:58:41;1.45;;;0.65;;
72493;SDS011;60520;49.182;-0.348;2023-12-14T07:01:11;0.93;;;0.40;;
72493;SDS011;60520;49.182;-0.348;2023-12-14T07:03:39;1.25;;;0.52;;
72493;SDS011;60520;49.182;-0.348;2023-12-14T07:06:07;0.75;;;0.50;;
72493;SDS011;60520;49.182;-0.348;2023-12-14T07:08:34;1.48;;;0.60;;
72493;SDS011;60520;49.182;-0.348;2023-12-14T07:11:01;1.00;;;0.50;;
72493;SDS011;60520;49.182;-0.348;2023-12-14T07:13:28;0.82;;;0.55;;
72493;SDS011;60520;49.182;-0.348;2023-12-14T07:15:57;1.00;;;0.50;;
72493;SDS011;60520;49.182;-0.348;2023-12-14T07:18:24;1.67;;;0.55;;
72493;SDS011;60520;49.182;-0.348;2023-12-14T07:20:51;0.77;;;0.50;;
72493;SDS011;60520;49.182;-0.348;2023-12-14T07:23:18;1.95;;;0.70;;
72493;SDS011;60520;49.182;-0.348;2023-12-14T07:25:46;1.80;;;0.55;;
72493;SDS011;60520;49.182;-0.348;2023-12-14T07:28:13;0.80;;;0.50;;
72493;SDS011;60520;49.182;-0.348;2023-12-14T07:30:40;1.92;;;0.60;;
72493;SDS011;60520;49.182;-0.348;2023-12-14T07:33:08;1.30;;;0.60;;
72493;SDS011;60520;49.182;-0.348;2023-12-14T07:35:35;1.70;;;0.70;;
72493;SDS011;60520;49.182;-0.348;2023-12-14T07:38:04;1.58;;;0.52;;
72493;SDS011;60520;49.182;-0.348;2023-12-14T07:40:31;1.23;;;0.63;;
72493;SDS011;60520;49.182;-0.348;2023-12-14T07:42:59;0.95;;;0.50;;
72493;SDS011;60520;49.182;-0.348;2023-12-14T07:45:26;1.70;;;0.60;;
72493;SDS011;60520;49.182;-0.348;2023-12-14T07:47:53;0.80;;;0.52;;
72493;SDS011;60520;49.182;-0.348;2023-12-14T07:50:21;1.00;;;0.57;;
72493;SDS011;60520;49.182;-0.348;2023-12-14T07:52:48;1.58;;;0.60;;
72493;SDS011;60520;49.182;-0.348;2023-12-14T07:55:16;2.17;;;0.50;;
72493;SDS011;60520;49.182;-0.348;2023-12-14T07:57:43;0.90;;;0.52;;
72493;SDS011;60520;49.182;-0.348;2023-12-14T08:00:11;0.77;;;0.50;;
72493;SDS011;60520;49.182;-0.348;2023-12-14T08:02:38;0.73;;;0.60;;
72493;SDS011;60520;49.182;-0.348;2023-12-14T08:05:07;1.13;;;0.50;;
72493;SDS011;60520;49.182;-0.348;2023-12-14T08:07:35;1.63;;;0.43;;
72493;SDS011;60520;49.182;-0.348;2023-12-14T08:10:03;1.95;;;0.60;;
72493;SDS011;60520;49.182;-0.348;2023-12-14T08:12:30;1.48;;;0.60;;
72493;SDS011;60520;49.182;-0.348;2023-12-14T08:14:57;1.10;;;0.55;;
72493;SDS011;60520;49.182;-0.348;2023-12-14T08:17:24;0.60;;;0.50;;
72493;SDS011;60520;49.182;-0.348;2023-12-14T08:19:53;0.82;;;0.50;;
72493;SDS011;60520;49.182;-0.348;2023-12-14T08:22:20;0.93;;;0.57;;
72493;SDS011;60520;49.182;-0.348;2023-12-14T08:24:48;0.75;;;0.40;;
72493;SDS011;60520;49.182;-0.348;2023-12-14T08:27:16;0.50;;;0.40;;
72493;SDS011;60520;49.182;-0.348;2023-12-14T08:29:43;1.25;;;0.47;;
72493;SDS011;60520;49.182;-0.348;2023-12-14T08:32:11;1.00;;;0.40;;
72493;SDS011;60520;49.182;-0.348;2023-12-14T08:34:38;1.80;;;0.50;;
72493;SDS011;60520;49.182;-0.348;2023-12-14T08:37:05;1.00;;;0.40;;
72493;SDS011;60520;49.182;-0.348;2023-12-14T08:39:32;1.27;;;0.60;;
72493;SDS011;60520;49.182;-0.348;2023-12-14T08:42:01;1.35;;;0.60;;
72493;SDS011;60520;49.182;-0.348;2023-12-14T08:44:28;1.38;;;0.60;;
72493;SDS011;60520;49.182;-0.348;2023-12-14T08:46:55;1.23;;;0.60;;
72493;SDS011;60520;49.182;-0.348;2023-12-14T08:49:22;1.27;;;0.57;;
72493;SDS011;60520;49.182;-0.348;2023-12-14T08:51:50;1.05;;;0.60;;
72493;SDS011;60520;49.182;-0.348;2023-12-14T08:54:17;0.60;;;0.50;;
72493;SDS011;60520;49.182;-0.348;2023-12-14T08:56:44;1.60;;;0.43;;
72493;SDS011;60520;49.182;-0.348;2023-12-14T08:59:12;1.02;;;0.60;;
72493;SDS011;60520;49.182;-0.348;2023-12-14T09:01:39;0.88;;;0.52;;
72493;SDS011;60520;49.182;-0.348;2023-12-14T09:04:07;0.70;;;0.40;;
72493;SDS011;60520;49.182;-0.348;2023-12-14T09:06:34;1.27;;;0.55;;
72493;SDS011;60520;49.182;-0.348;2023-12-14T09:09:01;1.08;;;0.60;;
72493;SDS011;60520;49.182;-0.348;2023-12-14T09:11:29;2.10;;;0.50;;
72493;SDS011;60520;49.182;-0.348;2023-12-14T09:13:56;0.90;;;0.40;;
72493;SDS011;60520;49.182;-0.348;2023-12-14T09:16:25;1.05;;;0.50;;
72493;SDS011;60520;49.182;-0.348;2023-12-14T09:18:52;1.08;;;0.68;;
72493;SDS011;60520;49.182;-0.348;2023-12-14T09:21:19;1.13;;;0.50;;
72493;SDS011;60520;49.182;-0.348;2023-12-14T09:23:46;1.15;;;0.60;;
72493;SDS011;60520;49.182;-0.348;2023-12-14T09:26:14;1.15;;;0.60;;
72493;SDS011;60520;49.182;-0.348;2023-12-14T09:28:41;1.92;;;0.50;;
72493;SDS011;60520;49.182;-0.348;2023-12-14T09:31:08;1.23;;;0.70;;
72493;SDS011;60520;49.182;-0.348;2023-12-14T09:33:37;1.63;;;0.60;;
72493;SDS011;60520;49.182;-0.348;2023-12-14T09:36:04;1.08;;;0.50;;
72493;SDS011;60520;49.182;-0.348;2023-12-14T09:38:32;0.85;;;0.68;;
72493;SDS011;60520;49.182;-0.348;2023-12-14T09:40:59;0.90;;;0.40;;
72493;SDS011;60520;49.182;-0.348;2023-12-14T09:43:26;1.05;;;0.50;;
72493;SDS011;60520;49.182;-0.348;2023-12-14T09:45:53;1.35;;;0.60;;
72493;SDS011;60520;49.182;-0.348;2023-12-14T09:48:22;0.75;;;0.52;;
72493;SDS011;60520;49.182;-0.348;2023-12-14T09:50:50;0.52;;;0.40;;
72493;SDS011;60520;49.182;-0.348;2023-12-14T09:53:17;0.80;;;0.40;;
72493;SDS011;60520;49.182;-0.348;2023-12-14T09:55:44;1.00;;;0.47;;
72493;SDS011;60520;49.182;-0.348;2023-12-14T09:58:11;1.13;;;0.55;;
72493;SDS011;60520;49.182;-0.348;2023-12-14T10:00:39;0.80;;;0.50;;
72493;SDS011;60520;49.182;-0.348;2023-12-14T10:03:17;1.02;;;0.50;;
72493;SDS011;60520;49.182;-0.348;2023-12-14T10:05:44;2.47;;;0.60;;
72493;SDS011;60520;49.182;-0.348;2023-12-14T10:08:13;1.50;;;0.50;;
72493;SDS011;60520;49.182;-0.348;2023-12-14T10:10:40;1.50;;;0.57;;
72493;SDS011;60520;49.182;-0.348;2023-12-14T10:13:07;0.68;;;0.45;;
72493;SDS011;60520;49.182;-0.348;2023-12-14T10:15:40;1.05;;;0.55;;
72493;SDS011;60520;49.182;-0.348;2023-12-14T10:18:07;1.27;;;0.45;;
72493;SDS011;60520;49.182;-0.348;2023-12-14T10:20:34;1.17;;;0.60;;
72493;SDS011;60520;49.182;-0.348;2023-12-14T10:23:03;0.63;;;0.52;;
72493;SDS011;60520;49.182;-0.348;2023-12-14T10:25:31;1.45;;;0.63;;
72493;SDS011;60520;49.182;-0.348;2023-12-14T10:27:59;0.80;;;0.40;;
72493;SDS011;60520;49.182;-0.348;2023-12-14T10:30:27;1.08;;;0.60;;
72493;SDS011;60520;49.182;-0.348;2023-12-14T10:32:55;1.00;;;0.70;;
72493;SDS011;60520;49.182;-0.348;2023-12-14T10:35:22;4.22;;;0.80;;
72493;SDS011;60520;49.182;-0.348;2023-12-14T10:37:50;1.15;;;0.65;;
72493;SDS011;60520;49.182;-0.348;2023-12-14T10:40:18;1.77;;;0.50;;
72493;SDS011;60520;49.182;-0.348;2023-12-14T10:42:47;1.15;;;0.50;;
72493;SDS011;60520;49.182;-0.348;2023-12-14T10:45:14;1.38;;;0.55;;
72493;SDS011;60520;49.182;-0.348;2023-12-14T10:47:44;1.20;;;0.63;;
72493;SDS011;60520;49.182;-0.348;2023-12-14T10:50:11;0.80;;;0.60;;
72493;SDS011;60520;49.182;-0.348;2023-12-14T10:52:39;1.40;;;0.57;;
72493;SDS011;60520;49.182;-0.348;2023-12-14T10:55:07;6.22;;;0.80;;
72493;SDS011;60520;49.182;-0.348;2023-12-14T10:57:35;1.95;;;0.80;;
72493;SDS011;60520;49.182;-0.348;2023-12-14T11:00:04;8.23;;;0.60;;
72493;SDS011;60520;49.182;-0.348;2023-12-14T11:02:37;2.92;;;0.80;;
72493;SDS011;60520;49.182;-0.348;2023-12-14T11:05:05;2.95;;;0.70;;
72493;SDS011;60520;49.182;-0.348;2023-12-14T11:07:47;1.73;;;0.70;;
72493;SDS011;60520;49.182;-0.348;2023-12-14T11:10:15;4.40;;;0.80;;
72493;SDS011;60520;49.182;-0.348;2023-12-14T11:15:27;3.38;;;0.85;;
72493;SDS011;60520;49.182;-0.348;2023-12-14T11:20:47;2.15;;;0.85;;
72493;SDS011;60520;49.182;-0.348;2023-12-14T11:23:14;3.10;;;0.80;;
72493;SDS011;60520;49.182;-0.348;2023-12-14T11:25:42;1.48;;;0.70;;
72493;SDS011;60520;49.182;-0.348;2023-12-14T11:28:10;2.60;;;0.90;;
72493;SDS011;60520;49.182;-0.348;2023-12-14T11:30:39;1.13;;;0.60;;
72493;SDS011;60520;49.182;-0.348;2023-12-14T11:33:06;4.03;;;0.80;;
72493;SDS011;60520;49.182;-0.348;2023-12-14T11:35:34;1.73;;;0.70;;
72493;SDS011;60520;49.182;-0.348;2023-12-14T11:38:01;1.65;;;0.73;;
72493;SDS011;60520;49.182;-0.348;2023-12-14T11:40:35;5.03;;;0.63;;
72493;SDS011;60520;49.182;-0.348;2023-12-14T11:43:02;1.73;;;0.73;;
72493;SDS011;60520;49.182;-0.348;2023-12-14T11:45:32;1.10;;;0.60;;
72493;SDS011;60520;49.182;-0.348;2023-12-14T11:48:02;1.50;;;0.52;;
72493;SDS011;60520;49.182;-0.348;2023-12-14T11:50:30;2.25;;;0.80;;
72493;SDS011;60520;49.182;-0.348;2023-12-14T11:52:58;2.38;;;0.70;;
72493;SDS011;60520;49.182;-0.348;2023-12-14T11:55:25;1.08;;;0.63;;
72493;SDS011;60520;49.182;-0.348;2023-12-14T11:57:53;2.90;;;1.00;;
72493;SDS011;60520;49.182;-0.348;2023-12-14T12:00:23;1.92;;;0.70;;
72493;SDS011;60520;49.182;-0.348;2023-12-14T12:02:50;2.17;;;0.73;;
72493;SDS011;60520;49.182;-0.348;2023-12-14T12:05:19;1.42;;;0.73;;
72493;SDS011;60520;49.182;-0.348;2023-12-14T12:07:46;2.22;;;0.70;;
72493;SDS011;60520;49.182;-0.348;2023-12-14T12:10:13;1.83;;;0.63;;
72493;SDS011;60520;49.182;-0.348;2023-12-14T12:12:40;1.52;;;0.70;;
72493;SDS011;60520;49.182;-0.348;2023-12-14T12:15:08;1.25;;;0.60;;
72493;SDS011;60520;49.182;-0.348;2023-12-14T12:17:35;1.60;;;0.75;;
72493;SDS011;60520;49.182;-0.348;2023-12-14T12:20:06;2.40;;;0.80;;
72493;SDS011;60520;49.182;-0.348;2023-12-14T12:22:35;3.42;;;0.90;;
72493;SDS011;60520;49.182;-0.348;2023-12-14T12:25:02;2.85;;;0.75;;
72493;SDS011;60520;49.182;-0.348;2023-12-14T12:27:29;1.00;;;0.60;;
72493;SDS011;60520;49.182;-0.348;2023-12-14T12:29:57;2.83;;;0.70;;
72493;SDS011;60520;49.182;-0.348;2023-12-14T12:32:24;2.50;;;0.90;;
72493;SDS011;60520;49.182;-0.348;2023-12-14T12:34:51;1.35;;;0.80;;
72493;SDS011;60520;49.182;-0.348;2023-12-14T12:37:18;1.80;;;0.75;;
72493;SDS011;60520;49.182;-0.348;2023-12-14T12:39:47;1.73;;;0.80;;
72493;SDS011;60520;49.182;-0.348;2023-12-14T12:42:14;1.08;;;0.70;;
72493;SDS011;60520;49.182;-0.348;2023-12-14T12:44:41;2.08;;;0.80;;
72493;SDS011;60520;49.182;-0.348;2023-12-14T12:47:08;1.45;;;0.70;;
72493;SDS011;60520;49.182;-0.348;2023-12-14T12:49:35;1.27;;;0.70;;
72493;SDS011;60520;49.182;-0.348;2023-12-14T12:52:03;1.38;;;0.75;;
72493;SDS011;60520;49.182;-0.348;2023-12-14T12:54:30;2.88;;;0.90;;
72493;SDS011;60520;49.182;-0.348;2023-12-14T12:56:59;3.65;;;0.68;;
72493;SDS011;60520;49.182;-0.348;2023-12-14T12:59:26;1.25;;;0.60;;
72493;SDS011;60520;49.182;-0.348;2023-12-14T13:01:54;1.30;;;0.60;;
72493;SDS011;60520;49.182;-0.348;2023-12-14T13:04:21;1.25;;;0.77;;
72493;SDS011;60520;49.182;-0.348;2023-12-14T13:06:49;1.55;;;0.60;;
72493;SDS011;60520;49.182;-0.348;2023-12-14T13:09:16;1.08;;;0.63;;
72493;SDS011;60520;49.182;-0.348;2023-12-14T13:11:44;1.42;;;0.80;;
72493;SDS011;60520;49.182;-0.348;2023-12-14T13:14:12;1.35;;;0.70;;
72493;SDS011;60520;49.182;-0.348;2023-12-14T13:16:40;1.83;;;0.75;;
72493;SDS011;60520;49.182;-0.348;2023-12-14T13:19:08;2.63;;;0.73;;
72493;SDS011;60520;49.182;-0.348;2023-12-14T13:21:35;1.75;;;0.77;;
72493;SDS011;60520;49.182;-0.348;2023-12-14T13:24:02;0.95;;;0.60;;
72493;SDS011;60520;49.182;-0.348;2023-12-14T13:26:29;1.52;;;0.65;;
72493;SDS011;60520;49.182;-0.348;2023-12-14T13:28:57;1.10;;;0.60;;
72493;SDS011;60520;49.182;-0.348;2023-12-14T13:31:25;1.35;;;0.63;;
72493;SDS011;60520;49.182;-0.348;2023-12-14T13:33:52;1.23;;;0.70;;
72493;SDS011;60520;49.182;-0.348;2023-12-14T13:36:19;2.47;;;0.70;;
72493;SDS011;60520;49.182;-0.348;2023-12-14T13:38:46;1.73;;;0.80;;
72493;SDS011;60520;49.182;-0.348;2023-12-14T13:41:14;1.50;;;0.63;;
72493;SDS011;60520;49.182;-0.348;2023-12-14T13:43:41;1.33;;;0.80;;
72493;SDS011;60520;49.182;-0.348;2023-12-14T13:46:09;2.20;;;0.90;;
72493;SDS011;60520;49.182;-0.348;2023-12-14T13:48:37;0.88;;;0.60;;
72493;SDS011;60520;49.182;-0.348;2023-12-14T13:51:04;2.40;;;0.90;;
72493;SDS011;60520;49.182;-0.348;2023-12-14T13:53:33;1.50;;;0.80;;
72493;SDS011;60520;49.182;-0.348;2023-12-14T13:56:00;1.27;;;0.52;;
72493;SDS011;60520;49.182;-0.348;2023-12-14T13:58:28;1.73;;;0.68;;
72493;SDS011;60520;49.182;-0.348;2023-12-14T14:00:55;1.13;;;0.65;;
72493;SDS011;60520;49.182;-0.348;2023-12-14T14:03:22;2.28;;;0.90;;
72493;SDS011;60520;49.182;-0.348;2023-12-14T14:05:52;1.30;;;0.65;;
72493;SDS011;60520;49.182;-0.348;2023-12-14T14:08:20;1.27;;;0.70;;
72493;SDS011;60520;49.182;-0.348;2023-12-14T14:10:47;3.17;;;0.82;;
72493;SDS011;60520;49.182;-0.348;2023-12-14T14:13:15;1.77;;;0.70;;
72493;SDS011;60520;49.182;-0.348;2023-12-14T14:15:42;3.72;;;0.90;;
72493;SDS011;60520;49.182;-0.348;2023-12-14T14:18:09;5.60;;;0.88;;
72493;SDS011;60520;49.182;-0.348;2023-12-14T14:20:36;2.92;;;0.80;;
72493;SDS011;60520;49.182;-0.348;2023-12-14T14:23:04;4.20;;;0.80;;
72493;SDS011;60520;49.182;-0.348;2023-12-14T14:25:32;3.95;;;0.90;;
72493;SDS011;60520;49.182;-0.348;2023-12-14T14:27:59;7.63;;;1.20;;
72493;SDS011;60520;49.182;-0.348;2023-12-14T14:30:26;2.97;;;1.10;;
72493;SDS011;60520;49.182;-0.348;2023-12-14T14:32:53;3.35;;;0.80;;
72493;SDS011;60520;49.182;-0.348;2023-12-14T14:35:21;7.10;;;1.25;;
72493;SDS011;60520;49.182;-0.348;2023-12-14T14:37:48;9.18;;;1.40;;
72493;SDS011;60520;49.182;-0.348;2023-12-14T14:40:17;20.88;;;1.80;;